< Typhoon 199215 1992 Season Typhoon 199217 >
Typhoon 199216 (POLLY)
General InformationTrack Information on Google MapsDetailed Wind InformationList of All Images || NewsDisaster Info.ResourceGoogle EarthGE AnimationAtom FeedGeoJSON
Detalied Best Track (Time Zone = UTC)
Year Month Day Hour Lat. Long. Pressure (hPa) Wind (kt) Class Image Chart
1992 8 27 00 20.5 128.5 998 0 2 Image Chart
1992 8 27 06 20.8 128.0 994 0 2 Image Chart
1992 8 27 12 21.3 126.8 994 0 2 Image Chart
1992 8 27 18 21.8 126.0 990 35 3 Image Chart
1992 8 28 00 22.2 125.2 990 40 3 Image Chart
1992 8 28 03 22.3 124.9 990 40 3 Image Chart
1992 8 28 06 22.5 124.6 985 45 3 Image Chart
1992 8 28 09 22.5 124.4 985 45 3 Image Chart
1992 8 28 12 22.6 124.2 985 45 3 Image Chart
1992 8 28 15 22.6 124.0 985 45 3 Image Chart
1992 8 28 18 22.7 123.8 985 45 3 Image Chart
1992 8 28 21 22.7 123.6 985 45 3 Image Chart
1992 8 29 00 22.8 123.4 985 45 3 Image Chart
1992 8 29 03 22.9 123.2 980 50 4 Image Chart
1992 8 29 06 23.0 123.0 980 50 4 Image Chart
1992 8 29 09 23.1 122.8 980 50 4 Image Chart
1992 8 29 12 23.2 122.7 980 50 4 Image Chart
1992 8 29 15 23.3 122.5 980 50 4 Image Chart
1992 8 29 18 23.4 122.4 980 50 4 Image Chart
1992 8 29 21 23.6 122.3 975 55 4 Image Chart
1992 8 30 00 23.8 122.2 975 55 4 Image Chart
1992 8 30 03 24.0 122.0 975 55 4 Image Chart
1992 8 30 06 24.2 121.8 975 55 4 Image Chart
1992 8 30 09 24.5 121.5 975 55 4 Image Chart
1992 8 30 12 25.0 121.1 975 55 4 Image Chart
1992 8 30 15 25.3 120.9 975 55 4 Image Chart
1992 8 30 18 25.5 120.6 975 55 4 Image Chart
1992 8 30 21 25.6 120.2 975 55 4 Image Chart
1992 8 31 00 25.6 119.7 980 50 4 Image Chart
1992 8 31 06 25.7 119.0 985 45 3 Image Chart
1992 8 31 12 25.9 118.7 990 0 2 Image Chart
1992 8 31 18 28.1 118.8 990 0 2 Image Chart
1992 9 1 00 31.8 119.0 992 0 2 Image Chart
1992 9 1 06 33.8 119.0 992 0 2 Image Chart
1992 9 1 12 35.0 120.0 994 0 2 Image Chart
1992 9 1 18 35.5 121.0 996 0 2 Image Chart
1992 9 2 00 36.0 121.5 1000 0 6 Image Chart
1992 9 2 06 36.5 122.5 1000 0 6 Image Chart
1992 9 2 12 37.3 123.2 1002 0 6 Image Chart
1992 9 2 18 39.0 124.0 1000 0 6 Image Chart
1992 9 3 00 40.0 124.0 1000 0 6 Image Chart
1992 9 3 06 41.0 125.0 998 0 6 Image Chart
1992 9 3 12 41.0 127.5 1000 0 6 Image Chart
1992 9 3 18 41.0 131.0 1000 0 6 Image Chart
1992 9 4 00 41.0 134.0 1000 0 6 Image Chart
1992 9 4 06 40.0 135.0 1000 0 6 Image Chart
1992 9 4 12 39.5 137.0 1000 0 6 Image Chart
Japan Meteorological Agency Best Track Data | Correction Date : 1992-12-25
< Typhoon 199215 1992 Season Typhoon 199217 >

Help